sensor_id;sensor_type;location;lat;lon;timestamp;P1;durP1;ratioP1;P2;durP2;ratioP2
68976;SDS011;56029;52.568;13.588;2023-05-29T00:01:07;9.63;;;3.90;;
68976;SDS011;56029;52.568;13.588;2023-05-29T00:03:34;10.63;;;4.20;;
68976;SDS011;56029;52.568;13.588;2023-05-29T00:06:02;10.55;;;4.10;;
68976;SDS011;56029;52.568;13.588;2023-05-29T00:08:28;9.55;;;3.63;;
68976;SDS011;56029;52.568;13.588;2023-05-29T00:10:53;8.97;;;3.60;;
68976;SDS011;56029;52.568;13.588;2023-05-29T00:13:19;11.15;;;4.35;;
68976;SDS011;56029;52.568;13.588;2023-05-29T00:15:45;11.67;;;4.40;;
68976;SDS011;56029;52.568;13.588;2023-05-29T00:18:11;13.63;;;4.50;;
68976;SDS011;56029;52.568;13.588;2023-05-29T00:20:37;11.87;;;4.20;;
68976;SDS011;56029;52.568;13.588;2023-05-29T00:23:03;10.48;;;4.35;;
68976;SDS011;56029;52.568;13.588;2023-05-29T00:25:31;11.02;;;4.28;;
68976;SDS011;56029;52.568;13.588;2023-05-29T00:27:57;13.18;;;4.30;;
68976;SDS011;56029;52.568;13.588;2023-05-29T00:30:23;11.53;;;4.80;;
68976;SDS011;56029;52.568;13.588;2023-05-29T00:32:48;11.48;;;4.47;;
68976;SDS011;56029;52.568;13.588;2023-05-29T00:35:14;10.10;;;4.35;;
68976;SDS011;56029;52.568;13.588;2023-05-29T00:37:40;9.50;;;4.13;;
68976;SDS011;56029;52.568;13.588;2023-05-29T00:40:06;11.27;;;4.37;;
68976;SDS011;56029;52.568;13.588;2023-05-29T00:42:32;11.93;;;4.10;;
68976;SDS011;56029;52.568;13.588;2023-05-29T00:44:58;11.77;;;4.20;;
68976;SDS011;56029;52.568;13.588;2023-05-29T00:47:24;11.37;;;4.53;;
68976;SDS011;56029;52.568;13.588;2023-05-29T00:49:49;10.15;;;4.68;;
68976;SDS011;56029;52.568;13.588;2023-05-29T00:52:17;10.07;;;4.30;;
68976;SDS011;56029;52.568;13.588;2023-05-29T00:54:44;12.35;;;4.57;;
68976;SDS011;56029;52.568;13.588;2023-05-29T00:57:12;11.50;;;4.50;;
68976;SDS011;56029;52.568;13.588;2023-05-29T00:59:39;9.93;;;4.38;;
68976;SDS011;56029;52.568;13.588;2023-05-29T01:02:06;10.23;;;4.10;;
68976;SDS011;56029;52.568;13.588;2023-05-29T01:04:31;9.67;;;4.10;;
68976;SDS011;56029;52.568;13.588;2023-05-29T01:07:00;10.38;;;3.90;;
68976;SDS011;56029;52.568;13.588;2023-05-29T01:09:28;10.60;;;4.10;;
68976;SDS011;56029;52.568;13.588;2023-05-29T01:14:36;10.32;;;4.25;;
68976;SDS011;56029;52.568;13.588;2023-05-29T01:17:19;9.50;;;4.13;;
68976;SDS011;56029;52.568;13.588;2023-05-29T01:25:46;10.23;;;3.97;;
68976;SDS011;56029;52.568;13.588;2023-05-29T01:28:44;10.27;;;4.05;;
68976;SDS011;56029;52.568;13.588;2023-05-29T01:31:13;10.13;;;3.97;;
68976;SDS011;56029;52.568;13.588;2023-05-29T01:33:51;9.85;;;3.83;;
68976;SDS011;56029;52.568;13.588;2023-05-29T01:36:21;10.43;;;3.90;;
68976;SDS011;56029;52.568;13.588;2023-05-29T01:38:48;11.45;;;4.65;;
68976;SDS011;56029;52.568;13.588;2023-05-29T01:41:15;9.65;;;4.28;;
68976;SDS011;56029;52.568;13.588;2023-05-29T01:43:45;10.33;;;4.13;;
68976;SDS011;56029;52.568;13.588;2023-05-29T01:46:12;9.07;;;3.92;;
68976;SDS011;56029;52.568;13.588;2023-05-29T01:48:40;9.13;;;4.25;;
68976;SDS011;56029;52.568;13.588;2023-05-29T01:51:06;10.35;;;4.00;;
68976;SDS011;56029;52.568;13.588;2023-05-29T01:53:32;10.23;;;3.90;;
68976;SDS011;56029;52.568;13.588;2023-05-29T01:55:58;10.37;;;3.90;;
68976;SDS011;56029;52.568;13.588;2023-05-29T01:58:23;10.95;;;4.00;;
68976;SDS011;56029;52.568;13.588;2023-05-29T02:00:50;11.00;;;3.83;;
68976;SDS011;56029;52.568;13.588;2023-05-29T02:03:16;11.50;;;4.07;;
68976;SDS011;56029;52.568;13.588;2023-05-29T02:05:42;10.67;;;3.90;;
68976;SDS011;56029;52.568;13.588;2023-05-29T02:08:07;11.60;;;3.97;;
68976;SDS011;56029;52.568;13.588;2023-05-29T02:10:33;8.97;;;4.13;;
68976;SDS011;56029;52.568;13.588;2023-05-29T02:12:59;9.93;;;3.70;;
68976;SDS011;56029;52.568;13.588;2023-05-29T02:15:24;10.47;;;3.90;;
68976;SDS011;56029;52.568;13.588;2023-05-29T02:17:50;8.07;;;3.90;;
68976;SDS011;56029;52.568;13.588;2023-05-29T02:20:15;9.77;;;4.28;;
68976;SDS011;56029;52.568;13.588;2023-05-29T02:22:41;9.97;;;4.03;;
68976;SDS011;56029;52.568;13.588;2023-05-29T02:25:07;8.60;;;3.65;;
68976;SDS011;56029;52.568;13.588;2023-05-29T02:27:33;12.63;;;4.40;;
68976;SDS011;56029;52.568;13.588;2023-05-29T02:29:58;9.95;;;4.15;;
68976;SDS011;56029;52.568;13.588;2023-05-29T02:32:24;11.60;;;4.07;;
68976;SDS011;56029;52.568;13.588;2023-05-29T02:34:51;12.73;;;4.28;;
68976;SDS011;56029;52.568;13.588;2023-05-29T02:37:17;10.18;;;4.05;;
68976;SDS011;56029;52.568;13.588;2023-05-29T02:39:43;12.33;;;4.13;;
68976;SDS011;56029;52.568;13.588;2023-05-29T02:42:09;10.93;;;4.30;;
68976;SDS011;56029;52.568;13.588;2023-05-29T02:44:34;12.90;;;4.33;;
68976;SDS011;56029;52.568;13.588;2023-05-29T02:47:00;9.40;;;3.90;;
68976;SDS011;56029;52.568;13.588;2023-05-29T02:49:25;9.83;;;4.20;;
68976;SDS011;56029;52.568;13.588;2023-05-29T02:51:51;9.27;;;3.80;;
68976;SDS011;56029;52.568;13.588;2023-05-29T02:54:21;10.38;;;4.20;;
68976;SDS011;56029;52.568;13.588;2023-05-29T02:56:48;10.73;;;4.22;;
68976;SDS011;56029;52.568;13.588;2023-05-29T02:59:13;10.57;;;4.40;;
68976;SDS011;56029;52.568;13.588;2023-05-29T03:01:39;12.00;;;4.30;;
68976;SDS011;56029;52.568;13.588;2023-05-29T03:04:05;11.13;;;4.27;;
68976;SDS011;56029;52.568;13.588;2023-05-29T03:06:30;10.33;;;4.70;;
68976;SDS011;56029;52.568;13.588;2023-05-29T03:08:57;9.93;;;4.47;;
68976;SDS011;56029;52.568;13.588;2023-05-29T03:11:24;10.45;;;4.57;;
68976;SDS011;56029;52.568;13.588;2023-05-29T03:13:50;13.57;;;4.20;;
68976;SDS011;56029;52.568;13.588;2023-05-29T03:16:16;11.13;;;4.37;;
68976;SDS011;56029;52.568;13.588;2023-05-29T03:18:41;11.97;;;4.30;;
68976;SDS011;56029;52.568;13.588;2023-05-29T03:21:07;13.13;;;4.72;;
68976;SDS011;56029;52.568;13.588;2023-05-29T03:23:33;11.40;;;4.63;;
68976;SDS011;56029;52.568;13.588;2023-05-29T03:25:58;12.32;;;4.72;;
68976;SDS011;56029;52.568;13.588;2023-05-29T03:28:24;9.67;;;4.43;;
68976;SDS011;56029;52.568;13.588;2023-05-29T03:30:50;10.13;;;4.17;;
68976;SDS011;56029;52.568;13.588;2023-05-29T03:33:16;10.02;;;4.10;;
68976;SDS011;56029;52.568;13.588;2023-05-29T03:35:42;10.75;;;4.40;;
68976;SDS011;56029;52.568;13.588;2023-05-29T03:38:07;11.10;;;4.17;;
68976;SDS011;56029;52.568;13.588;2023-05-29T03:40:35;11.02;;;4.30;;
68976;SDS011;56029;52.568;13.588;2023-05-29T03:43:00;9.87;;;4.40;;
68976;SDS011;56029;52.568;13.588;2023-05-29T03:45:26;10.60;;;4.28;;
68976;SDS011;56029;52.568;13.588;2023-05-29T03:47:51;10.97;;;4.37;;
68976;SDS011;56029;52.568;13.588;2023-05-29T03:50:17;10.80;;;4.63;;
68976;SDS011;56029;52.568;13.588;2023-05-29T03:52:42;11.13;;;4.60;;
68976;SDS011;56029;52.568;13.588;2023-05-29T03:55:08;10.90;;;4.40;;
68976;SDS011;56029;52.568;13.588;2023-05-29T03:57:41;10.27;;;4.13;;
68976;SDS011;56029;52.568;13.588;2023-05-29T04:00:07;9.40;;;4.13;;
68976;SDS011;56029;52.568;13.588;2023-05-29T04:02:36;9.00;;;4.10;;
68976;SDS011;56029;52.568;13.588;2023-05-29T04:05:03;10.57;;;4.70;;
68976;SDS011;56029;52.568;13.588;2023-05-29T04:07:29;10.65;;;4.30;;
68976;SDS011;56029;52.568;13.588;2023-05-29T04:09:55;9.33;;;3.93;;
68976;SDS011;56029;52.568;13.588;2023-05-29T04:12:20;9.15;;;3.90;;
68976;SDS011;56029;52.568;13.588;2023-05-29T04:14:46;9.67;;;4.00;;
68976;SDS011;56029;52.568;13.588;2023-05-29T04:17:11;8.77;;;3.97;;
68976;SDS011;56029;52.568;13.588;2023-05-29T04:19:37;8.95;;;3.92;;
68976;SDS011;56029;52.568;13.588;2023-05-29T04:22:02;12.13;;;4.13;;
68976;SDS011;56029;52.568;13.588;2023-05-29T04:24:28;11.00;;;3.88;;
68976;SDS011;56029;52.568;13.588;2023-05-29T04:26:53;9.13;;;3.70;;
68976;SDS011;56029;52.568;13.588;2023-05-29T04:29:19;9.87;;;3.87;;
68976;SDS011;56029;52.568;13.588;2023-05-29T04:31:45;9.35;;;4.13;;
68976;SDS011;56029;52.568;13.588;2023-05-29T04:34:15;9.65;;;4.10;;
68976;SDS011;56029;52.568;13.588;2023-05-29T04:36:42;8.33;;;3.83;;
68976;SDS011;56029;52.568;13.588;2023-05-29T04:39:09;7.97;;;3.60;;
68976;SDS011;56029;52.568;13.588;2023-05-29T04:41:34;8.63;;;3.50;;
68976;SDS011;56029;52.568;13.588;2023-05-29T04:44:00;9.77;;;3.77;;
68976;SDS011;56029;52.568;13.588;2023-05-29T04:46:26;9.30;;;3.83;;
68976;SDS011;56029;52.568;13.588;2023-05-29T04:48:55;7.38;;;3.80;;
68976;SDS011;56029;52.568;13.588;2023-05-29T04:51:21;7.60;;;4.03;;
68976;SDS011;56029;52.568;13.588;2023-05-29T04:53:47;8.00;;;3.63;;
68976;SDS011;56029;52.568;13.588;2023-05-29T04:56:14;8.20;;;3.45;;
68976;SDS011;56029;52.568;13.588;2023-05-29T04:58:40;8.65;;;3.50;;
68976;SDS011;56029;52.568;13.588;2023-05-29T05:01:06;9.50;;;3.78;;
68976;SDS011;56029;52.568;13.588;2023-05-29T05:03:33;7.95;;;3.35;;
68976;SDS011;56029;52.568;13.588;2023-05-29T05:06:02;8.83;;;3.90;;
68976;SDS011;56029;52.568;13.588;2023-05-29T05:08:28;7.88;;;3.60;;
68976;SDS011;56029;52.568;13.588;2023-05-29T05:10:54;7.88;;;3.50;;
68976;SDS011;56029;52.568;13.588;2023-05-29T05:13:20;8.10;;;3.58;;
68976;SDS011;56029;52.568;13.588;2023-05-29T05:15:46;7.70;;;3.60;;
68976;SDS011;56029;52.568;13.588;2023-05-29T05:18:12;7.55;;;3.40;;
68976;SDS011;56029;52.568;13.588;2023-05-29T05:20:37;7.50;;;3.50;;
68976;SDS011;56029;52.568;13.588;2023-05-29T05:23:03;7.67;;;3.13;;
68976;SDS011;56029;52.568;13.588;2023-05-29T05:25:28;7.53;;;3.00;;
68976;SDS011;56029;52.568;13.588;2023-05-29T05:27:54;7.33;;;3.20;;
68976;SDS011;56029;52.568;13.588;2023-05-29T05:30:19;7.03;;;3.05;;
68976;SDS011;56029;52.568;13.588;2023-05-29T05:32:45;8.23;;;3.30;;
68976;SDS011;56029;52.568;13.588;2023-05-29T05:35:11;7.65;;;3.40;;
68976;SDS011;56029;52.568;13.588;2023-05-29T05:37:37;6.47;;;2.93;;
68976;SDS011;56029;52.568;13.588;2023-05-29T05:40:03;5.78;;;2.80;;
68976;SDS011;56029;52.568;13.588;2023-05-29T05:42:32;6.00;;;2.78;;
68976;SDS011;56029;52.568;13.588;2023-05-29T05:44:57;6.38;;;2.58;;
68976;SDS011;56029;52.568;13.588;2023-05-29T05:47:23;6.13;;;2.93;;
68976;SDS011;56029;52.568;13.588;2023-05-29T05:49:49;6.22;;;3.20;;
68976;SDS011;56029;52.568;13.588;2023-05-29T05:52:17;6.10;;;2.90;;
68976;SDS011;56029;52.568;13.588;2023-05-29T05:54:42;7.03;;;3.10;;
68976;SDS011;56029;52.568;13.588;2023-05-29T05:57:08;7.22;;;2.85;;
68976;SDS011;56029;52.568;13.588;2023-05-29T05:59:34;6.88;;;2.50;;
68976;SDS011;56029;52.568;13.588;2023-05-29T06:02:00;5.80;;;2.67;;
68976;SDS011;56029;52.568;13.588;2023-05-29T06:04:26;6.25;;;2.80;;
68976;SDS011;56029;52.568;13.588;2023-05-29T06:06:52;5.18;;;2.47;;
68976;SDS011;56029;52.568;13.588;2023-05-29T06:09:18;6.20;;;2.53;;
68976;SDS011;56029;52.568;13.588;2023-05-29T06:11:44;6.18;;;2.58;;
68976;SDS011;56029;52.568;13.588;2023-05-29T06:14:10;6.37;;;2.60;;
68976;SDS011;56029;52.568;13.588;2023-05-29T06:16:35;4.80;;;2.42;;
68976;SDS011;56029;52.568;13.588;2023-05-29T06:19:01;6.03;;;2.60;;
68976;SDS011;56029;52.568;13.588;2023-05-29T06:21:27;4.82;;;2.60;;
68976;SDS011;56029;52.568;13.588;2023-05-29T06:23:53;7.70;;;2.53;;
68976;SDS011;56029;52.568;13.588;2023-05-29T06:26:18;5.10;;;2.03;;
68976;SDS011;56029;52.568;13.588;2023-05-29T06:28:44;6.28;;;2.55;;
68976;SDS011;56029;52.568;13.588;2023-05-29T06:31:09;5.60;;;2.53;;
68976;SDS011;56029;52.568;13.588;2023-05-29T06:33:35;5.32;;;2.47;;
68976;SDS011;56029;52.568;13.588;2023-05-29T06:36:02;3.50;;;2.28;;
68976;SDS011;56029;52.568;13.588;2023-05-29T06:38:28;4.80;;;2.40;;
68976;SDS011;56029;52.568;13.588;2023-05-29T06:40:54;5.32;;;2.55;;
68976;SDS011;56029;52.568;13.588;2023-05-29T06:43:19;4.33;;;2.20;;
68976;SDS011;56029;52.568;13.588;2023-05-29T06:45:45;4.40;;;2.30;;
68976;SDS011;56029;52.568;13.588;2023-05-29T06:48:10;5.47;;;2.30;;
68976;SDS011;56029;52.568;13.588;2023-05-29T06:50:36;6.03;;;2.80;;
68976;SDS011;56029;52.568;13.588;2023-05-29T06:53:02;6.57;;;2.70;;
68976;SDS011;56029;52.568;13.588;2023-05-29T06:55:27;4.85;;;2.38;;
68976;SDS011;56029;52.568;13.588;2023-05-29T06:57:53;5.53;;;2.47;;
68976;SDS011;56029;52.568;13.588;2023-05-29T07:00:18;5.55;;;2.38;;
68976;SDS011;56029;52.568;13.588;2023-05-29T07:02:44;5.57;;;2.20;;
68976;SDS011;56029;52.568;13.588;2023-05-29T07:05:10;4.95;;;1.98;;
68976;SDS011;56029;52.568;13.588;2023-05-29T07:07:35;6.57;;;2.60;;
68976;SDS011;56029;52.568;13.588;2023-05-29T07:10:01;5.93;;;2.38;;
68976;SDS011;56029;52.568;13.588;2023-05-29T07:12:27;3.67;;;2.10;;
68976;SDS011;56029;52.568;13.588;2023-05-29T07:14:52;5.47;;;2.30;;
68976;SDS011;56029;52.568;13.588;2023-05-29T07:17:18;5.90;;;2.37;;
68976;SDS011;56029;52.568;13.588;2023-05-29T07:19:43;4.30;;;2.20;;
68976;SDS011;56029;52.568;13.588;2023-05-29T07:22:09;4.60;;;2.40;;
68976;SDS011;56029;52.568;13.588;2023-05-29T07:24:35;4.70;;;2.20;;
68976;SDS011;56029;52.568;13.588;2023-05-29T07:27:01;5.25;;;2.22;;
68976;SDS011;56029;52.568;13.588;2023-05-29T07:29:26;5.60;;;2.40;;
68976;SDS011;56029;52.568;13.588;2023-05-29T07:31:52;6.43;;;2.35;;
68976;SDS011;56029;52.568;13.588;2023-05-29T07:34:17;4.47;;;2.17;;
68976;SDS011;56029;52.568;13.588;2023-05-29T07:39:30;4.63;;;2.30;;
68976;SDS011;56029;52.568;13.588;2023-05-29T07:41:56;5.07;;;2.40;;
68976;SDS011;56029;52.568;13.588;2023-05-29T07:44:22;5.47;;;2.37;;
68976;SDS011;56029;52.568;13.588;2023-05-29T07:46:48;4.53;;;2.33;;
68976;SDS011;56029;52.568;13.588;2023-05-29T07:49:13;4.25;;;2.50;;
68976;SDS011;56029;52.568;13.588;2023-05-29T07:51:39;4.37;;;2.30;;
68976;SDS011;56029;52.568;13.588;2023-05-29T07:54:05;4.43;;;2.30;;
68976;SDS011;56029;52.568;13.588;2023-05-29T07:56:30;6.07;;;2.63;;
68976;SDS011;56029;52.568;13.588;2023-05-29T07:58:56;4.43;;;2.33;;
68976;SDS011;56029;52.568;13.588;2023-05-29T08:01:22;4.63;;;2.50;;
68976;SDS011;56029;52.568;13.588;2023-05-29T08:03:48;6.60;;;2.60;;
68976;SDS011;56029;52.568;13.588;2023-05-29T08:06:14;4.53;;;2.10;;
68976;SDS011;56029;52.568;13.588;2023-05-29T08:08:40;3.88;;;2.20;;
68976;SDS011;56029;52.568;13.588;2023-05-29T08:11:05;5.93;;;2.40;;
68976;SDS011;56029;52.568;13.588;2023-05-29T08:13:31;4.95;;;2.35;;
68976;SDS011;56029;52.568;13.588;2023-05-29T08:15:56;5.07;;;2.30;;
68976;SDS011;56029;52.568;13.588;2023-05-29T08:18:26;3.72;;;2.00;;
68976;SDS011;56029;52.568;13.588;2023-05-29T08:20:51;15.75;;;8.80;;
68976;SDS011;56029;52.568;13.588;2023-05-29T08:23:20;6.97;;;2.83;;
68976;SDS011;56029;52.568;13.588;2023-05-29T08:25:45;5.78;;;2.88;;
68976;SDS011;56029;52.568;13.588;2023-05-29T08:28:11;4.25;;;2.33;;
68976;SDS011;56029;52.568;13.588;2023-05-29T08:30:37;4.27;;;2.27;;
68976;SDS011;56029;52.568;13.588;2023-05-29T08:33:03;5.73;;;2.43;;
68976;SDS011;56029;52.568;13.588;2023-05-29T08:35:28;4.68;;;2.47;;
68976;SDS011;56029;52.568;13.588;2023-05-29T08:37:55;5.13;;;2.60;;
68976;SDS011;56029;52.568;13.588;2023-05-29T08:40:20;5.00;;;2.37;;
68976;SDS011;56029;52.568;13.588;2023-05-29T08:42:47;4.47;;;2.23;;
68976;SDS011;56029;52.568;13.588;2023-05-29T08:45:16;4.95;;;2.40;;
68976;SDS011;56029;52.568;13.588;2023-05-29T08:47:44;6.28;;;2.50;;
68976;SDS011;56029;52.568;13.588;2023-05-29T08:50:10;4.82;;;2.22;;
68976;SDS011;56029;52.568;13.588;2023-05-29T08:52:37;5.93;;;2.73;;
68976;SDS011;56029;52.568;13.588;2023-05-29T08:55:05;4.97;;;2.60;;
68976;SDS011;56029;52.568;13.588;2023-05-29T08:57:32;5.15;;;2.50;;
68976;SDS011;56029;52.568;13.588;2023-05-29T08:59:58;4.70;;;2.28;;
68976;SDS011;56029;52.568;13.588;2023-05-29T09:02:32;5.60;;;2.77;;
68976;SDS011;56029;52.568;13.588;2023-05-29T09:04:58;5.00;;;2.50;;
68976;SDS011;56029;52.568;13.588;2023-05-29T09:07:24;4.93;;;2.50;;
68976;SDS011;56029;52.568;13.588;2023-05-29T09:09:52;5.78;;;2.67;;
68976;SDS011;56029;52.568;13.588;2023-05-29T09:12:18;4.03;;;2.40;;
68976;SDS011;56029;52.568;13.588;2023-05-29T09:14:44;3.87;;;2.07;;
68976;SDS011;56029;52.568;13.588;2023-05-29T09:17:11;5.47;;;2.58;;
68976;SDS011;56029;52.568;13.588;2023-05-29T09:19:38;5.13;;;2.00;;
68976;SDS011;56029;52.568;13.588;2023-05-29T09:22:06;5.30;;;2.53;;
68976;SDS011;56029;52.568;13.588;2023-05-29T09:24:34;5.20;;;2.40;;
68976;SDS011;56029;52.568;13.588;2023-05-29T09:27:02;5.45;;;2.67;;
68976;SDS011;56029;52.568;13.588;2023-05-29T09:29:32;5.18;;;2.50;;
68976;SDS011;56029;52.568;13.588;2023-05-29T09:31:59;4.70;;;2.40;;
68976;SDS011;56029;52.568;13.588;2023-05-29T09:34:26;5.07;;;2.40;;
68976;SDS011;56029;52.568;13.588;2023-05-29T09:36:53;5.03;;;2.70;;
68976;SDS011;56029;52.568;13.588;2023-05-29T09:39:18;5.85;;;2.80;;
68976;SDS011;56029;52.568;13.588;2023-05-29T09:41:45;5.70;;;2.60;;
68976;SDS011;56029;52.568;13.588;2023-05-29T09:44:14;5.70;;;2.43;;
68976;SDS011;56029;52.568;13.588;2023-05-29T09:46:40;5.68;;;2.35;;
68976;SDS011;56029;52.568;13.588;2023-05-29T09:49:13;4.60;;;2.40;;
68976;SDS011;56029;52.568;13.588;2023-05-29T09:51:39;4.57;;;2.13;;
68976;SDS011;56029;52.568;13.588;2023-05-29T09:54:14;6.35;;;2.40;;
68976;SDS011;56029;52.568;13.588;2023-05-29T09:56:43;5.73;;;2.50;;
68976;SDS011;56029;52.568;13.588;2023-05-29T09:59:18;5.13;;;2.38;;
68976;SDS011;56029;52.568;13.588;2023-05-29T10:01:46;4.55;;;2.50;;
68976;SDS011;56029;52.568;13.588;2023-05-29T10:04:12;4.03;;;2.27;;
68976;SDS011;56029;52.568;13.588;2023-05-29T10:06:41;4.70;;;2.70;;
68976;SDS011;56029;52.568;13.588;2023-05-29T10:09:09;3.90;;;2.38;;
68976;SDS011;56029;52.568;13.588;2023-05-29T10:11:41;6.70;;;3.35;;
68976;SDS011;56029;52.568;13.588;2023-05-29T10:14:08;6.00;;;2.70;;
68976;SDS011;56029;52.568;13.588;2023-05-29T10:16:37;5.70;;;2.60;;
68976;SDS011;56029;52.568;13.588;2023-05-29T10:19:11;3.92;;;2.28;;
68976;SDS011;56029;52.568;13.588;2023-05-29T10:21:39;5.80;;;2.42;;
68976;SDS011;56029;52.568;13.588;2023-05-29T10:24:07;5.50;;;2.67;;
68976;SDS011;56029;52.568;13.588;2023-05-29T10:26:34;4.43;;;2.50;;
68976;SDS011;56029;52.568;13.588;2023-05-29T10:29:12;5.60;;;2.40;;
68976;SDS011;56029;52.568;13.588;2023-05-29T10:31:48;4.90;;;2.70;;
68976;SDS011;56029;52.568;13.588;2023-05-29T10:34:41;4.18;;;2.40;;
68976;SDS011;56029;52.568;13.588;2023-05-29T10:40:04;4.17;;;2.30;;
68976;SDS011;56029;52.568;13.588;2023-05-29T10:42:41;4.28;;;2.50;;
68976;SDS011;56029;52.568;13.588;2023-05-29T10:45:08;5.75;;;2.50;;
68976;SDS011;56029;52.568;13.588;2023-05-29T10:47:37;4.28;;;2.30;;
68976;SDS011;56029;52.568;13.588;2023-05-29T10:50:04;4.55;;;2.55;;
68976;SDS011;56029;52.568;13.588;2023-05-29T10:52:31;6.00;;;2.67;;
68976;SDS011;56029;52.568;13.588;2023-05-29T10:54:57;5.07;;;2.55;;
68976;SDS011;56029;52.568;13.588;2023-05-29T10:57:24;5.05;;;2.45;;
68976;SDS011;56029;52.568;13.588;2023-05-29T10:59:59;4.85;;;2.42;;
68976;SDS011;56029;52.568;13.588;2023-05-29T11:02:31;5.07;;;2.57;;
68976;SDS011;56029;52.568;13.588;2023-05-29T11:05:06;7.35;;;2.50;;
68976;SDS011;56029;52.568;13.588;2023-05-29T11:07:50;4.70;;;2.27;;
68976;SDS011;56029;52.568;13.588;2023-05-29T11:13:31;4.85;;;2.85;;
68976;SDS011;56029;52.568;13.588;2023-05-29T11:16:09;5.78;;;2.45;;
68976;SDS011;56029;52.568;13.588;2023-05-29T11:18:45;4.60;;;2.47;;
68976;SDS011;56029;52.568;13.588;2023-05-29T11:21:19;3.97;;;2.23;;
68976;SDS011;56029;52.568;13.588;2023-05-29T11:23:57;4.45;;;2.35;;
68976;SDS011;56029;52.568;13.588;2023-05-29T11:26:25;4.95;;;2.60;;
68976;SDS011;56029;52.568;13.588;2023-05-29T11:28:52;4.70;;;2.72;;
68976;SDS011;56029;52.568;13.588;2023-05-29T11:31:18;5.50;;;2.60;;
68976;SDS011;56029;52.568;13.588;2023-05-29T11:33:49;4.15;;;2.15;;
68976;SDS011;56029;52.568;13.588;2023-05-29T11:36:17;4.90;;;2.53;;
68976;SDS011;56029;52.568;13.588;2023-05-29T11:38:44;5.00;;;2.38;;
68976;SDS011;56029;52.568;13.588;2023-05-29T11:41:10;5.60;;;2.60;;
68976;SDS011;56029;52.568;13.588;2023-05-29T11:43:36;4.95;;;2.70;;
68976;SDS011;56029;52.568;13.588;2023-05-29T11:46:02;4.67;;;2.50;;
68976;SDS011;56029;52.568;13.588;2023-05-29T11:48:30;5.18;;;2.55;;
68976;SDS011;56029;52.568;13.588;2023-05-29T11:51:10;5.90;;;2.50;;
68976;SDS011;56029;52.568;13.588;2023-05-29T11:53:36;5.20;;;2.43;;
68976;SDS011;56029;52.568;13.588;2023-05-29T11:56:06;6.95;;;2.70;;
68976;SDS011;56029;52.568;13.588;2023-05-29T11:58:33;5.32;;;2.60;;
68976;SDS011;56029;52.568;13.588;2023-05-29T12:00:59;5.47;;;2.47;;
68976;SDS011;56029;52.568;13.588;2023-05-29T12:03:25;4.35;;;2.33;;
68976;SDS011;56029;52.568;13.588;2023-05-29T12:05:50;5.43;;;2.70;;
68976;SDS011;56029;52.568;13.588;2023-05-29T12:08:24;5.73;;;2.80;;
68976;SDS011;56029;52.568;13.588;2023-05-29T12:10:51;4.93;;;2.60;;
68976;SDS011;56029;52.568;13.588;2023-05-29T12:13:21;5.43;;;2.50;;
68976;SDS011;56029;52.568;13.588;2023-05-29T12:15:47;5.03;;;2.35;;
68976;SDS011;56029;52.568;13.588;2023-05-29T12:18:15;4.53;;;2.47;;
68976;SDS011;56029;52.568;13.588;2023-05-29T12:20:41;5.10;;;2.60;;
68976;SDS011;56029;52.568;13.588;2023-05-29T12:23:07;5.93;;;2.47;;
68976;SDS011;56029;52.568;13.588;2023-05-29T12:25:34;5.80;;;2.60;;
68976;SDS011;56029;52.568;13.588;2023-05-29T12:28:04;5.35;;;2.33;;
68976;SDS011;56029;52.568;13.588;2023-05-29T12:30:30;5.63;;;2.72;;
68976;SDS011;56029;52.568;13.588;2023-05-29T12:32:56;5.72;;;2.80;;
68976;SDS011;56029;52.568;13.588;2023-05-29T12:35:23;6.75;;;2.72;;
68976;SDS011;56029;52.568;13.588;2023-05-29T12:37:56;5.30;;;2.30;;
68976;SDS011;56029;52.568;13.588;2023-05-29T12:40:24;5.88;;;2.58;;
68976;SDS011;56029;52.568;13.588;2023-05-29T12:42:55;5.25;;;2.50;;
68976;SDS011;56029;52.568;13.588;2023-05-29T12:45:25;5.93;;;2.60;;
68976;SDS011;56029;52.568;13.588;2023-05-29T12:47:56;6.05;;;2.70;;
68976;SDS011;56029;52.568;13.588;2023-05-29T12:52:54;5.18;;;2.40;;
68976;SDS011;56029;52.568;13.588;2023-05-29T12:55:23;4.38;;;2.40;;
68976;SDS011;56029;52.568;13.588;2023-05-29T12:57:49;4.93;;;2.30;;
68976;SDS011;56029;52.568;13.588;2023-05-29T13:00:14;5.40;;;2.80;;
68976;SDS011;56029;52.568;13.588;2023-05-29T13:02:40;5.10;;;2.60;;
68976;SDS011;56029;52.568;13.588;2023-05-29T13:05:06;5.17;;;2.30;;
68976;SDS011;56029;52.568;13.588;2023-05-29T13:07:32;4.60;;;2.53;;
68976;SDS011;56029;52.568;13.588;2023-05-29T13:10:01;5.90;;;2.45;;
68976;SDS011;56029;52.568;13.588;2023-05-29T13:12:30;4.23;;;2.30;;
68976;SDS011;56029;52.568;13.588;2023-05-29T13:14:55;5.70;;;2.80;;
68976;SDS011;56029;52.568;13.588;2023-05-29T13:17:22;5.88;;;2.72;;
68976;SDS011;56029;52.568;13.588;2023-05-29T13:19:47;4.90;;;2.40;;
68976;SDS011;56029;52.568;13.588;2023-05-29T13:22:13;4.22;;;2.40;;
68976;SDS011;56029;52.568;13.588;2023-05-29T13:24:38;5.33;;;2.50;;
68976;SDS011;56029;52.568;13.588;2023-05-29T13:27:04;4.93;;;2.40;;
68976;SDS011;56029;52.568;13.588;2023-05-29T13:29:31;7.07;;;2.73;;
68976;SDS011;56029;52.568;13.588;2023-05-29T13:31:57;5.47;;;2.55;;
68976;SDS011;56029;52.568;13.588;2023-05-29T13:34:22;7.33;;;2.50;;
68976;SDS011;56029;52.568;13.588;2023-05-29T13:36:50;5.32;;;2.47;;
68976;SDS011;56029;52.568;13.588;2023-05-29T13:39:16;5.03;;;2.67;;
68976;SDS011;56029;52.568;13.588;2023-05-29T13:41:42;5.72;;;2.45;;
68976;SDS011;56029;52.568;13.588;2023-05-29T13:44:07;5.77;;;2.87;;
68976;SDS011;56029;52.568;13.588;2023-05-29T13:46:33;5.57;;;2.15;;
68976;SDS011;56029;52.568;13.588;2023-05-29T13:48:58;5.33;;;2.43;;
68976;SDS011;56029;52.568;13.588;2023-05-29T13:51:24;6.13;;;2.37;;
68976;SDS011;56029;52.568;13.588;2023-05-29T13:53:49;6.47;;;2.73;;
68976;SDS011;56029;52.568;13.588;2023-05-29T13:56:15;6.47;;;2.40;;
68976;SDS011;56029;52.568;13.588;2023-05-29T13:58:40;5.88;;;2.53;;
68976;SDS011;56029;52.568;13.588;2023-05-29T14:01:06;5.67;;;2.50;;
68976;SDS011;56029;52.568;13.588;2023-05-29T14:03:31;6.10;;;2.30;;
68976;SDS011;56029;52.568;13.588;2023-05-29T14:05:57;4.25;;;2.25;;
68976;SDS011;56029;52.568;13.588;2023-05-29T14:08:23;4.40;;;2.20;;
68976;SDS011;56029;52.568;13.588;2023-05-29T14:10:49;5.70;;;2.45;;
68976;SDS011;56029;52.568;13.588;2023-05-29T14:13:16;6.10;;;2.60;;
68976;SDS011;56029;52.568;13.588;2023-05-29T14:15:41;5.40;;;2.47;;
68976;SDS011;56029;52.568;13.588;2023-05-29T14:18:07;6.23;;;2.33;;
68976;SDS011;56029;52.568;13.588;2023-05-29T14:20:33;5.00;;;2.20;;
68976;SDS011;56029;52.568;13.588;2023-05-29T14:22:58;4.47;;;2.40;;
68976;SDS011;56029;52.568;13.588;2023-05-29T14:25:24;6.17;;;2.30;;
68976;SDS011;56029;52.568;13.588;2023-05-29T14:27:50;4.43;;;2.30;;
68976;SDS011;56029;52.568;13.588;2023-05-29T14:30:17;6.25;;;2.38;;
68976;SDS011;56029;52.568;13.588;2023-05-29T14:32:42;5.47;;;2.33;;
68976;SDS011;56029;52.568;13.588;2023-05-29T14:35:09;4.43;;;2.40;;
68976;SDS011;56029;52.568;13.588;2023-05-29T14:37:34;4.65;;;2.30;;
68976;SDS011;56029;52.568;13.588;2023-05-29T14:40:01;5.97;;;2.20;;
68976;SDS011;56029;52.568;13.588;2023-05-29T14:42:27;6.45;;;2.20;;
68976;SDS011;56029;52.568;13.588;2023-05-29T14:44:53;6.97;;;2.40;;
68976;SDS011;56029;52.568;13.588;2023-05-29T14:47:18;5.60;;;2.23;;
68976;SDS011;56029;52.568;13.588;2023-05-29T14:49:44;5.03;;;2.30;;